Time;durP1;ratioP1;P1;durP2;ratioP2;P2;SDS_P1;SDS_P2;PMS_P1;PMS_P2;Temp;Humidity;BMP_temperature;BMP_pressure;BME280_temperature;BME280_humidity;BME280_pressure;Samples;Min_cycle;Max_cycle;Signal;HPM_P1;HPM_P2
2022/05/28 00:01:14;;;;;;;7.10;1.27;;;8.80;99.90;;;;;;5032638;28;20546;-81
2022/05/28 00:03:39;;;;;;;2.10;0.67;;;8.80;99.90;;;;;;5033923;28;20404;-82
2022/05/28 00:06:10;;;;;;;3.90;0.67;;;8.80;99.90;;;;;;5035128;28;20783;-82
2022/05/28 00:08:35;;;;;;;5.17;1.23;;;8.80;99.90;;;;;;5033001;28;20230;-81
2022/05/28 00:11:01;;;;;;;11.10;1.80;;;8.80;99.90;;;;;;5032605;28;20874;-81
2022/05/28 00:13:27;;;;;;;4.23;1.07;;;8.80;99.90;;;;;;5017623;28;20229;-82
2022/05/28 00:15:53;;;;;;;2.40;0.40;;;8.80;99.90;;;;;;5038595;28;20172;-79
2022/05/28 00:18:18;;;;;;;9.50;0.80;;;8.90;99.90;;;;;;5039073;28;20418;-81
2022/05/28 00:20:46;;;;;;;12.43;1.40;;;9.00;99.90;;;;;;5038703;28;20176;-81
2022/05/28 00:23:13;;;;;;;9.20;1.40;;;9.20;99.90;;;;;;5053926;28;20173;-80
2022/05/28 00:25:41;;;;;;;8.90;0.80;;;9.20;99.90;;;;;;5024416;28;20421;-80
2022/05/28 00:28:06;;;;;;;10.50;1.27;;;9.30;99.90;;;;;;5035852;28;20419;-81
2022/05/28 00:30:32;;;;;;;5.73;1.20;;;9.40;99.90;;;;;;5040160;28;20446;-81
2022/05/28 00:32:57;;;;;;;7.40;1.03;;;9.40;99.90;;;;;;5041059;28;20228;-82
2022/05/28 00:35:23;;;;;;;4.60;0.90;;;9.40;99.90;;;;;;5059097;28;20587;-84
2022/05/28 00:37:51;;;;;;;6.30;1.13;;;9.40;99.90;;;;;;5058711;28;20194;-79
2022/05/28 00:40:21;;;;;;;7.47;0.63;;;9.40;99.90;;;;;;5040951;28;20211;-83
2022/05/28 00:42:47;;;;;;;9.10;0.70;;;9.30;99.90;;;;;;5059177;28;20775;-85
2022/05/28 00:45:13;;;;;;;8.57;1.07;;;9.20;99.90;;;;;;5059815;28;20455;-82
2022/05/28 00:47:46;;;;;;;3.63;0.60;;;9.00;99.90;;;;;;5059099;28;20178;-84
2022/05/28 00:50:13;;;;;;;2.00;0.40;;;8.90;99.90;;;;;;5059158;28;20183;-82
2022/05/28 00:52:41;;;;;;;3.73;0.30;;;8.80;99.90;;;;;;5058901;28;20414;-80
2022/05/28 00:55:08;;;;;;;4.30;0.40;;;8.80;99.90;;;;;;5059005;28;20500;-85
2022/05/28 00:57:40;;;;;;;1.57;0.47;;;8.70;99.90;;;;;;5059109;28;20417;-84
2022/05/28 01:00:08;;;;;;;4.90;0.70;;;8.60;99.90;;;;;;5058984;28;20515;-83
2022/05/28 01:02:55;;;;;;;4.33;0.60;;;8.60;99.90;;;;;;5040773;28;20412;-80
2022/05/28 01:05:41;;;;;;;5.10;0.20;;;8.60;99.90;;;;;;5058833;28;20422;-83
2022/05/28 01:08:45;;;;;;;3.77;0.53;;;8.60;99.90;;;;;;5058445;28;20413;-79
2022/05/28 01:11:27;;;;;;;7.47;0.60;;;8.70;99.90;;;;;;5058964;28;20414;-79
2022/05/28 01:14:13;;;;;;;4.37;0.53;;;8.50;99.90;;;;;;5058690;28;20812;-80
2022/05/28 01:16:45;;;;;;;3.50;0.20;;;8.40;99.90;;;;;;5058787;28;20413;-80
2022/05/28 01:19:38;;;;;;;1.73;0.50;;;8.30;99.90;;;;;;5058669;28;20522;-80
2022/05/28 01:22:07;;;;;;;2.60;0.30;;;8.20;99.90;;;;;;5040404;28;20525;-85
2022/05/28 01:25:10;;;;;;;1.33;0.30;;;8.00;99.90;;;;;;5038837;28;20441;-80
2022/05/28 01:27:44;;;;;;;4.93;0.63;;;7.80;99.90;;;;;;5055528;28;20404;-80
2022/05/28 01:30:13;;;;;;;4.23;0.57;;;7.80;99.90;;;;;;5037815;28;20416;-85
2022/05/28 01:32:40;;;;;;;4.63;0.67;;;7.80;99.90;;;;;;5055481;28;20813;-82
2022/05/28 01:35:09;;;;;;;3.50;0.53;;;7.90;99.90;;;;;;5055192;28;20929;-80
2022/05/28 01:37:36;;;;;;;3.07;0.60;;;8.00;99.90;;;;;;5054930;28;20929;-80
2022/05/28 01:40:04;;;;;;;3.80;0.63;;;8.10;99.90;;;;;;5037399;28;20494;-82
2022/05/28 01:42:31;;;;;;;6.80;1.07;;;8.20;99.90;;;;;;5055259;28;20419;-80
2022/05/28 01:44:58;;;;;;;1.50;0.20;;;8.20;99.90;;;;;;5055369;28;20413;-84
2022/05/28 01:47:24;;;;;;;1.77;0.50;;;8.20;99.90;;;;;;5037412;28;20512;-80
2022/05/28 01:49:51;;;;;;;2.33;0.87;;;8.20;99.90;;;;;;5055396;28;20419;-80
2022/05/28 01:52:18;;;;;;;5.10;0.40;;;8.20;99.90;;;;;;5054860;28;20404;-82
2022/05/28 01:54:46;;;;;;;5.30;0.67;;;8.20;99.90;;;;;;5055050;28;20496;-80
2022/05/28 01:57:13;;;;;;;3.53;0.40;;;8.20;99.90;;;;;;5054913;28;20486;-81
2022/05/28 01:59:39;;;;;;;5.17;0.60;;;8.10;99.90;;;;;;5037152;28;20480;-80
2022/05/28 02:02:14;;;;;;;2.27;0.60;;;8.10;99.90;;;;;;5054863;28;20487;-79
2022/05/28 02:04:41;;;;;;;1.37;0.30;;;8.00;99.90;;;;;;5054986;28;20416;-80
2022/05/28 02:07:13;;;;;;;4.13;0.30;;;8.00;99.90;;;;;;5054402;28;20408;-80
2022/05/28 02:09:41;;;;;;;3.77;0.73;;;8.10;99.90;;;;;;5036955;28;20456;-79
2022/05/28 02:12:18;;;;;;;3.07;0.50;;;8.10;99.90;;;;;;5054475;28;20416;-79
2022/05/28 02:15:25;;;;;;;4.83;0.70;;;8.20;99.90;;;;;;5054715;28;20428;-80
2022/05/28 02:18:05;;;;;;;2.30;0.50;;;8.20;99.90;;;;;;5054702;28;20424;-81
2022/05/28 02:21:00;;;;;;;2.03;0.20;;;8.20;99.90;;;;;;5054631;28;20438;-80
2022/05/28 02:23:31;;;;;;;4.73;0.37;;;8.20;99.90;;;;;;5054365;28;20527;-79
2022/05/28 02:26:08;;;;;;;1.73;0.40;;;8.20;99.90;;;;;;5054311;28;20421;-79
2022/05/28 02:28:34;;;;;;;3.23;0.20;;;8.10;99.90;;;;;;5053458;28;20495;-80
2022/05/28 02:31:09;;;;;;;2.13;0.23;;;8.10;99.90;;;;;;5036565;28;20431;-80
2022/05/28 02:33:34;;;;;;;6.90;0.43;;;8.10;99.90;;;;;;5053694;28;20797;-79
2022/05/28 02:36:00;;;;;;;4.00;0.30;;;8.20;99.90;;;;;;5053832;28;20425;-80
2022/05/28 02:38:26;;;;;;;2.93;0.97;;;8.20;99.90;;;;;;5054091;28;20209;-79
2022/05/28 02:40:54;;;;;;;3.70;0.30;;;8.20;99.90;;;;;;5054082;28;20244;-80
2022/05/28 02:43:21;;;;;;;4.37;0.30;;;8.20;99.90;;;;;;5035985;28;20178;-80
2022/05/28 02:45:47;;;;;;;9.80;1.80;;;8.20;99.90;;;;;;5054150;28;20462;-80
2022/05/28 02:48:12;;;;;;;3.00;0.40;;;8.30;99.90;;;;;;5054010;28;20422;-80
2022/05/28 02:50:38;;;;;;;5.60;0.80;;;8.30;99.90;;;;;;5053777;28;20174;-80
2022/05/28 02:53:04;;;;;;;2.90;0.40;;;8.30;99.90;;;;;;5053950;28;20526;-82
2022/05/28 02:55:29;;;;;;;2.93;0.40;;;8.30;99.90;;;;;;5054016;28;20191;-79
2022/05/28 02:57:55;;;;;;;4.73;0.70;;;8.30;99.90;;;;;;5053772;28;20228;-87
2022/05/28 03:00:20;;;;;;;2.10;0.43;;;8.20;99.90;;;;;;5053788;28;20288;-80
2022/05/28 03:02:49;;;;;;;2.60;0.40;;;8.20;99.90;;;;;;5053799;28;20638;-79
2022/05/28 03:05:16;;;;;;;3.90;0.60;;;8.30;99.90;;;;;;5053756;28;20210;-85
2022/05/28 03:07:42;;;;;;;6.23;1.13;;;8.20;99.90;;;;;;5053247;28;20413;-81
2022/05/28 03:10:12;;;;;;;2.93;0.20;;;8.10;99.90;;;;;;5053656;28;20479;-82
2022/05/28 03:12:39;;;;;;;2.80;0.80;;;8.10;99.90;;;;;;5053482;28;20583;-83
2022/05/28 03:15:06;;;;;;;4.30;1.10;;;8.00;99.90;;;;;;5053697;28;20454;-87
2022/05/28 03:17:34;;;;;;;3.90;0.50;;;8.00;99.90;;;;;;5053542;28;20416;-79
2022/05/28 03:20:01;;;;;;;4.00;0.60;;;7.90;99.90;;;;;;5035594;28;20559;-80
2022/05/28 03:22:28;;;;;;;7.10;0.80;;;7.90;99.90;;;;;;5053029;28;20412;-81
2022/05/28 03:24:53;;;;;;;4.43;0.67;;;7.90;99.90;;;;;;5054170;28;20486;-79
2022/05/28 03:27:19;;;;;;;5.90;0.50;;;7.80;99.90;;;;;;5054508;28;20409;-83
2022/05/28 03:29:47;;;;;;;4.03;0.60;;;7.80;99.90;;;;;;5053386;28;20170;-80
2022/05/28 03:32:13;;;;;;;4.53;0.97;;;7.80;99.90;;;;;;5053233;28;20402;-80
2022/05/28 03:34:40;;;;;;;4.67;0.90;;;7.90;99.90;;;;;;5035421;28;20445;-80
2022/05/28 03:37:06;;;;;;;4.00;0.63;;;8.10;99.90;;;;;;5052767;28;20174;-80
2022/05/28 03:39:31;;;;;;;8.83;1.93;;;8.30;99.90;;;;;;5053190;28;20476;-82
2022/05/28 03:41:57;;;;;;;15.40;1.93;;;8.30;99.90;;;;;;5053199;28;20173;-80
2022/05/28 03:44:22;;;;;;;6.50;0.87;;;8.30;99.90;;;;;;5037199;28;20174;-79
2022/05/28 03:46:48;;;;;;;8.23;0.87;;;8.40;99.90;;;;;;5053056;28;20174;-79
2022/05/28 03:49:25;;;;;;;3.43;0.67;;;8.40;99.90;;;;;;5052417;28;20668;-81
2022/05/28 03:51:51;;;;;;;4.53;0.40;;;8.40;99.90;;;;;;5052980;28;20225;-84
2022/05/28 03:54:19;;;;;;;5.30;1.10;;;8.50;99.90;;;;;;5053184;28;20925;-80
2022/05/28 03:56:46;;;;;;;7.60;1.33;;;8.50;99.90;;;;;;5053137;28;20246;-81
2022/05/28 03:59:15;;;;;;;2.60;0.50;;;8.40;99.90;;;;;;5052739;28;20476;-80
2022/05/28 04:01:41;;;;;;;1.60;0.57;;;8.40;99.90;;;;;;5052773;28;20819;-81
2022/05/28 04:04:07;;;;;;;6.30;1.23;;;8.30;99.90;;;;;;5052927;28;20426;-81
2022/05/28 04:06:35;;;;;;;5.33;2.13;;;8.30;99.90;;;;;;5052402;28;20413;-78
2022/05/28 04:09:01;;;;;;;6.20;0.60;;;8.30;99.90;;;;;;5052753;28;20174;-79
2022/05/28 04:11:27;;;;;;;4.23;1.07;;;8.30;99.90;;;;;;5052845;28;20422;-79
2022/05/28 04:13:52;;;;;;;5.90;0.90;;;8.30;99.90;;;;;;5052374;28;20469;-78
2022/05/28 04:16:18;;;;;;;11.73;2.17;;;8.40;99.90;;;;;;5034796;28;20184;-79
2022/05/28 04:18:43;;;;;;;4.43;0.80;;;8.50;99.90;;;;;;5052557;28;20210;-79
2022/05/28 04:21:09;;;;;;;4.33;0.70;;;8.50;99.90;;;;;;5052359;28;20277;-78
2022/05/28 04:23:35;;;;;;;4.93;0.87;;;8.60;99.90;;;;;;5052688;28;20207;-79
2022/05/28 04:26:07;;;;;;;8.70;1.30;;;8.60;99.90;;;;;;5052600;28;20174;-78
2022/05/28 04:28:32;;;;;;;6.10;1.60;;;8.60;99.90;;;;;;5052312;28;20445;-79
2022/05/28 04:30:58;;;;;;;7.43;0.60;;;8.60;99.90;;;;;;5034679;28;20480;-79
2022/05/28 04:33:24;;;;;;;2.97;1.13;;;8.90;99.90;;;;;;5052498;28;20181;-78
2022/05/28 04:35:49;;;;;;;6.10;0.70;;;9.00;99.90;;;;;;5052159;28;20222;-78
2022/05/28 04:38:15;;;;;;;5.60;0.50;;;9.00;99.90;;;;;;5052377;28;20177;-82
2022/05/28 04:40:46;;;;;;;8.60;1.60;;;8.90;99.90;;;;;;5052404;28;20183;-79
2022/05/28 04:43:11;;;;;;;5.90;1.20;;;8.90;99.90;;;;;;5052467;28;20169;-79
2022/05/28 04:45:37;;;;;;;5.17;1.47;;;8.80;99.90;;;;;;5052490;28;20507;-80
2022/05/28 04:48:03;;;;;;;5.80;2.13;;;8.90;99.90;;;;;;5052396;28;20632;-79
2022/05/28 04:50:32;;;;;;;10.43;2.03;;;9.10;99.90;;;;;;5052101;28;20641;-80
2022/05/28 04:52:57;;;;;;;6.60;1.03;;;9.30;99.90;;;;;;5052252;28;20964;-85
2022/05/28 04:55:23;;;;;;;7.30;1.47;;;9.40;99.90;;;;;;5052344;28;20509;-84
2022/05/28 04:57:51;;;;;;;8.50;0.70;;;9.40;99.90;;;;;;5052251;28;20179;-81
2022/05/28 05:00:18;;;;;;;8.60;1.67;;;9.30;99.90;;;;;;5053413;28;20679;-78
2022/05/28 05:02:44;;;;;;;4.87;0.93;;;9.20;99.90;;;;;;5055909;28;20429;-80
2022/05/28 05:05:09;;;;;;;9.73;1.23;;;9.40;99.90;;;;;;5056083;28;20430;-80
2022/05/28 05:07:38;;;;;;;2.30;0.80;;;9.40;99.90;;;;;;5037608;28;20424;-80
2022/05/28 05:10:04;;;;;;;6.63;1.40;;;9.40;99.90;;;;;;5056040;28;20177;-79
2022/05/28 05:12:30;;;;;;;4.00;0.60;;;9.40;99.90;;;;;;5037154;28;20493;-80
2022/05/28 05:14:55;;;;;;;4.77;0.60;;;9.50;99.90;;;;;;5038079;28;20932;-80
2022/05/28 05:17:21;;;;;;;5.73;1.17;;;9.60;99.90;;;;;;5055739;28;20247;-80
2022/05/28 05:19:47;;;;;;;2.60;0.73;;;9.70;99.90;;;;;;5055710;28;20218;-78
2022/05/28 05:22:12;;;;;;;7.10;1.40;;;9.70;99.90;;;;;;5055223;28;20171;-78
2022/05/28 05:24:38;;;;;;;5.60;1.03;;;9.90;99.90;;;;;;5055707;28;20605;-80
2022/05/28 05:27:04;;;;;;;5.67;0.80;;;10.10;99.90;;;;;;5055620;28;20539;-83
2022/05/28 05:29:30;;;;;;;7.53;1.10;;;10.20;99.90;;;;;;5055473;28;20176;-79
2022/05/28 05:31:55;;;;;;;7.43;1.53;;;10.40;99.90;;;;;;5047332;28;20759;-79
2022/05/28 05:34:21;;;;;;;7.90;0.70;;;10.70;99.90;;;;;;5055448;28;20229;-78
2022/05/28 05:36:46;;;;;;;7.50;1.80;;;10.70;99.90;;;;;;5055420;28;20624;-80
2022/05/28 05:39:12;;;;;;;6.00;0.90;;;10.90;99.90;;;;;;5055235;28;20303;-84
2022/05/28 05:41:43;;;;;;;9.47;1.03;;;11.10;99.90;;;;;;5055375;28;20173;-81
2022/05/28 05:44:08;;;;;;;7.17;1.03;;;11.40;99.90;;;;;;5054499;28;20221;-83
2022/05/28 05:46:34;;;;;;;11.73;1.93;;;11.50;99.90;;;;;;5055387;28;20412;-79
2022/05/28 05:49:00;;;;;;;3.17;1.23;;;11.80;99.90;;;;;;5037180;28;20448;-83
2022/05/28 05:51:27;;;;;;;6.70;1.23;;;12.20;99.90;;;;;;5054780;28;20253;-82
2022/05/28 05:53:52;;;;;;;4.53;0.90;;;12.20;99.90;;;;;;5055114;28;20177;-80
2022/05/28 05:56:18;;;;;;;15.80;2.37;;;12.10;99.90;;;;;;5055179;28;20417;-84
2022/05/28 05:58:43;;;;;;;8.63;1.33;;;12.30;99.90;;;;;;5054946;28;20248;-83
2022/05/28 06:01:09;;;;;;;7.67;1.53;;;12.10;99.90;;;;;;5037075;28;20210;-83
2022/05/28 06:03:35;;;;;;;9.10;1.57;;;12.00;99.90;;;;;;5054807;28;20637;-81
2022/05/28 06:06:05;;;;;;;6.20;1.20;;;12.20;99.90;;;;;;5054619;28;20171;-80
2022/05/28 06:08:30;;;;;;;4.23;1.07;;;11.90;99.90;;;;;;5054764;28;20418;-80
2022/05/28 06:10:56;;;;;;;10.07;1.90;;;11.60;99.90;;;;;;5054392;28;20412;-82
2022/05/28 06:13:22;;;;;;;3.47;0.50;;;11.50;99.90;;;;;;5054371;28;20228;-82
2022/05/28 06:15:47;;;;;;;2.83;0.60;;;11.40;99.90;;;;;;5036819;28;20163;-82
2022/05/28 06:18:14;;;;;;;9.57;1.80;;;11.30;99.90;;;;;;5054585;28;20227;-81
2022/05/28 06:20:40;;;;;;;8.93;2.50;;;11.40;99.90;;;;;;5054168;28;20262;-82
2022/05/28 06:23:05;;;;;;;5.90;0.90;;;12.20;99.90;;;;;;5054546;28;20987;-82
2022/05/28 06:25:31;;;;;;;3.20;0.50;;;12.90;19.00;;;;;;5054592;28;20170;-82
2022/05/28 06:27:57;;;;;;;6.33;0.93;;;13.30;99.90;;;;;;5054426;28;20168;-81
2022/05/28 06:30:22;;;;;;;3.17;0.60;;;13.40;1.00;;;;;;5054516;28;20176;-83
2022/05/28 06:32:48;;;;;;;6.77;1.37;;;13.60;99.90;;;;;;5054398;28;20700;-81
2022/05/28 06:35:15;;;;;;;9.60;1.37;;;13.50;99.90;;;;;;5054059;28;20168;-81
2022/05/28 06:37:43;;;;;;;7.27;1.00;;;14.10;99.90;;;;;;5054182;28;20533;-83
2022/05/28 06:40:09;;;;;;;3.83;1.03;;;14.30;1.00;;;;;;5054216;28;20468;-81
2022/05/28 06:42:35;;;;;;;4.47;0.87;;;14.70;1.00;;;;;;5036245;28;20418;-84
2022/05/28 06:45:01;;;;;;;5.87;0.50;;;16.60;1.00;;;;;;5054318;28;20653;-83
2022/05/28 06:47:29;;;;;;;7.03;0.90;;;18.70;99.90;;;;;;5054021;28;20201;-83
2022/05/28 06:52:39;;;;;;;2.60;0.40;;;19.30;99.90;;;;;;5039127;28;20470;-78
2022/05/28 06:55:05;;;;;;;5.67;0.63;;;19.00;99.90;;;;;;5053971;28;20413;-80
2022/05/28 06:57:30;;;;;;;11.10;1.33;;;17.70;99.90;;;;;;5053652;28;20269;-84
2022/05/28 06:59:58;;;;;;;6.53;0.97;;;17.80;99.90;;;;;;5053888;28;20554;-79
2022/05/28 07:02:24;;;;;;;6.30;1.17;;;15.30;99.90;;;;;;5053763;28;20176;-81
2022/05/28 07:04:49;;;;;;;4.77;0.67;;;15.30;1.00;;;;;;5053729;28;20425;-80
2022/05/28 07:07:16;;;;;;;7.20;1.23;;;16.70;99.90;;;;;;5035896;28;20179;-83
2022/05/28 07:09:42;;;;;;;7.50;0.90;;;18.30;99.90;;;;;;5059798;28;20207;-81
2022/05/28 07:12:08;;;;;;;8.50;1.27;;;20.40;99.90;;;;;;5062147;28;20423;-86
2022/05/28 07:14:34;;;;;;;4.13;0.70;;;18.90;97.70;;;;;;5053673;28;20556;-84
2022/05/28 07:16:59;;;;;;;3.20;0.70;;;20.70;98.30;;;;;;5053655;28;20421;-85
2022/05/28 07:19:31;;;;;;;6.43;1.00;;;20.40;72.00;;;;;;5053414;28;20205;-85
2022/05/28 07:21:59;;;;;;;3.37;0.73;;;20.50;61.60;;;;;;5052579;28;20177;-82
2022/05/28 07:24:28;;;;;;;9.93;1.40;;;21.20;57.30;;;;;;5053108;28;20820;-86
2022/05/28 07:26:53;;;;;;;5.17;0.70;;;19.80;41.10;;;;;;5053404;28;20401;-81
2022/05/28 07:29:19;;;;;;;12.13;2.03;;;18.50;40.60;;;;;;5053291;28;20424;-80
2022/05/28 07:31:45;;;;;;;5.23;0.83;;;21.00;53.20;;;;;;5053208;28;20197;-82
2022/05/28 07:34:11;;;;;;;4.03;1.33;;;21.20;41.70;;;;;;5053151;28;20493;-83
2022/05/28 07:36:36;;;;;;;9.43;1.43;;;20.70;27.60;;;;;;5052943;28;20404;-84
2022/05/28 07:39:02;;;;;;;7.50;1.60;;;18.80;25.20;;;;;;5035513;28;20243;-83
2022/05/28 07:41:28;;;;;;;4.73;0.60;;;17.90;40.30;;;;;;5053229;28;20193;-83
2022/05/28 07:43:55;;;;;;;6.50;0.97;;;16.20;95.80;;;;;;5052907;28;20633;-80
2022/05/28 07:46:24;;;;;;;4.03;1.00;;;15.20;99.90;;;;;;5053160;28;20175;-84
2022/05/28 07:48:51;;;;;;;6.33;0.80;;;14.40;53.70;;;;;;5035279;28;20450;-80
2022/05/28 07:51:17;;;;;;;9.77;0.83;;;13.50;99.90;;;;;;5052689;28;21000;-80
2022/05/28 07:53:43;;;;;;;8.17;3.47;;;12.80;1.00;;;;;;5052957;28;20444;-81
2022/05/28 07:56:10;;;;;;;6.27;1.00;;;12.50;93.50;;;;;;5053020;28;20404;-81
2022/05/28 07:58:39;;;;;;;9.57;1.40;;;12.40;37.00;;;;;;5052771;28;20412;-87
2022/05/28 08:01:06;;;;;;;5.37;0.87;;;12.50;93.90;;;;;;5050503;28;20425;-82
2022/05/28 08:03:31;;;;;;;8.93;1.27;;;14.00;1.00;;;;;;5050281;28;20823;-82
2022/05/28 08:05:57;;;;;;;9.90;1.67;;;14.90;1.00;;;;;;5052389;28;20506;-84
2022/05/28 08:08:25;;;;;;;3.37;0.80;;;14.60;1.00;;;;;;5052576;28;20162;-81
2022/05/28 08:10:52;;;;;;;5.30;0.80;;;14.60;99.90;;;;;;5034871;28;20181;-83
2022/05/28 08:13:21;;;;;;;7.73;1.03;;;14.20;1.00;;;;;;5052531;28;20975;-82
2022/05/28 08:15:48;;;;;;;4.20;1.33;;;13.70;99.90;;;;;;5034916;28;20417;-81
2022/05/28 08:18:16;;;;;;;8.00;1.13;;;15.70;1.00;;;;;;5052659;28;20438;-81
2022/05/28 08:23:32;;;;;;;5.80;1.20;;;19.90;99.90;;;;;;5052795;28;20410;-81
2022/05/28 08:25:57;;;;;;;8.77;1.17;;;18.00;99.90;;;;;;5052717;28;20415;-81
2022/05/28 08:28:26;;;;;;;7.20;1.60;;;19.80;99.90;;;;;;5052637;28;20192;-81
2022/05/28 08:30:51;;;;;;;5.70;1.03;;;20.40;99.90;;;;;;5052676;28;20174;-83
2022/05/28 08:33:19;;;;;;;5.23;0.70;;;20.30;75.80;;;;;;5052527;28;20533;-79
2022/05/28 08:35:46;;;;;;;6.47;0.80;;;20.30;58.90;;;;;;5056154;28;20265;-82
2022/05/28 08:38:18;;;;;;;6.70;1.23;;;19.70;64.90;;;;;;5038682;28;20767;-82
2022/05/28 08:40:56;;;;;;;6.47;1.37;;;17.80;99.90;;;;;;5056795;28;20438;-81
2022/05/28 08:43:25;;;;;;;7.70;0.77;;;16.50;99.90;;;;;;5056506;28;20414;-85
2022/05/28 08:45:51;;;;;;;11.90;1.50;;;16.20;99.90;;;;;;5056572;28;20423;-86
2022/05/28 08:48:22;;;;;;;6.43;1.23;;;15.90;99.90;;;;;;5056467;28;20410;-83
2022/05/28 08:50:58;;;;;;;6.90;1.57;;;15.30;1.00;;;;;;5038150;28;20206;-84
2022/05/28 08:53:30;;;;;;;3.40;1.00;;;14.00;20.40;;;;;;5056192;28;21009;-86
2022/05/28 08:55:58;;;;;;;4.33;1.17;;;12.90;1.00;;;;;;5047068;28;20422;-84
2022/05/28 08:58:27;;;;;;;6.13;1.20;;;12.50;96.60;;;;;;5035803;28;20419;-85
2022/05/28 09:01:02;;;;;;;5.70;1.80;;;12.60;99.90;;;;;;5036003;28;20512;-81
2022/05/28 09:03:49;;;;;;;5.13;1.57;;;13.10;99.90;;;;;;5035875;28;20783;-83
2022/05/28 09:06:26;;;;;;;7.00;1.23;;;13.70;73.70;;;;;;5035639;28;20422;-80
2022/05/28 09:08:54;;;;;;;4.77;1.13;;;16.90;1.00;;;;;;5035680;28;20449;-80
2022/05/28 09:11:53;;;;;;;7.10;0.83;;;18.10;1.00;;;;;;5035703;28;20420;-81
2022/05/28 09:14:37;;;;;;;7.00;1.30;;;19.70;99.90;;;;;;5043230;28;20496;-80
2022/05/28 09:17:27;;;;;;;8.50;0.97;;;17.90;99.90;;;;;;5039521;28;20423;-80
2022/05/28 09:20:10;;;;;;;4.23;0.60;;;15.80;99.90;;;;;;5017433;28;20906;-85
2022/05/28 09:22:36;;;;;;;6.47;1.33;;;13.60;99.90;;;;;;5019109;28;20440;-85
2022/05/28 09:25:02;;;;;;;7.20;0.63;;;12.80;99.90;;;;;;5037924;28;20488;-86
2022/05/28 09:27:53;;;;;;;4.73;0.63;;;12.80;99.90;;;;;;5037529;28;20421;-87
2022/05/28 09:30:46;;;;;;;4.03;1.33;;;16.30;99.60;;;;;;5037049;28;20188;-84
2022/05/28 09:33:58;;;;;;;5.50;1.53;;;18.00;1.00;;;;;;5037217;28;20435;-85
2022/05/28 09:36:49;;;;;;;7.90;1.60;;;19.00;99.90;;;;;;4994912;28;20424;-86
2022/05/28 09:39:37;;;;;;;5.20;0.50;;;19.30;99.90;;;;;;5038598;28;20466;-86
2022/05/28 09:42:37;;;;;;;6.53;1.40;;;19.20;99.90;;;;;;5038935;28;20415;-85
2022/05/28 09:45:29;;;;;;;3.67;0.83;;;19.20;99.90;;;;;;5020888;28;20427;-85
2022/05/28 09:47:54;;;;;;;5.00;0.73;;;17.70;99.90;;;;;;5044169;28;20423;-85
2022/05/28 09:50:22;;;;;;;6.10;0.50;;;18.30;99.90;;;;;;5049123;28;20462;-86
2022/05/28 09:56:09;;;;;;;7.07;1.23;;;16.80;99.90;;;;;;5046463;28;20490;-82
2022/05/28 09:58:39;;;;;;;6.00;0.70;;;16.00;25.40;;;;;;5040497;28;20868;-81
2022/05/28 10:01:12;;;;;;;7.00;1.07;;;14.60;1.00;;;;;;5035774;28;20428;-80
2022/05/28 10:06:27;;;;;;;10.83;1.60;;;13.20;1.00;;;;;;5034987;28;20456;-79
2022/05/28 10:08:53;;;;;;;6.80;1.10;;;13.30;99.90;;;;;;5034969;28;20412;-82
2022/05/28 10:11:19;;;;;;;5.10;0.70;;;13.60;60.00;;;;;;5034859;28;20590;-80
2022/05/28 10:13:52;;;;;;;6.07;1.77;;;14.20;1.00;;;;;;5034558;28;20218;-82
2022/05/28 10:16:23;;;;;;;9.53;1.57;;;15.60;1.00;;;;;;5034595;28;20431;-81
2022/05/28 10:18:57;;;;;;;6.03;0.50;;;18.40;99.90;;;;;;5034742;28;20459;-84
2022/05/28 10:21:37;;;;;;;8.73;1.40;;;18.50;1.00;;;;;;5034486;28;20445;-81
2022/05/28 10:24:10;;;;;;;9.60;1.57;;;17.00;1.00;;;;;;5034512;28;20470;-81
2022/05/28 10:26:40;;;;;;;9.87;2.03;;;15.80;99.90;;;;;;5034396;28;20551;-82
2022/05/28 10:29:38;;;;;;;6.90;1.23;;;15.40;99.90;;;;;;5034370;28;20501;-82
2022/05/28 10:32:26;;;;;;;5.90;1.07;;;15.30;99.90;;;;;;5028683;28;20431;-84
2022/05/28 10:35:01;;;;;;;9.97;1.40;;;15.10;99.90;;;;;;5033922;28;20398;-81
2022/05/28 10:37:26;;;;;;;6.67;0.93;;;14.60;1.00;;;;;;5034126;28;20408;-84
2022/05/28 10:40:12;;;;;;;4.73;1.27;;;14.30;1.00;;;;;;5034067;28;20475;-82
2022/05/28 10:42:37;;;;;;;9.70;1.47;;;14.20;1.00;;;;;;5034045;28;20164;-85
2022/05/28 10:45:05;;;;;;;9.13;1.33;;;14.50;98.60;;;;;;5034061;28;20448;-83
2022/05/28 10:48:01;;;;;;;5.10;0.93;;;15.70;99.90;;;;;;5033986;28;20195;-80
2022/05/28 10:50:40;;;;;;;8.43;1.80;;;16.00;1.00;;;;;;5033648;28;20777;-83
2022/05/28 10:53:19;;;;;;;8.67;0.80;;;15.50;99.90;;;;;;5038247;28;20465;-83
2022/05/28 10:56:06;;;;;;;9.70;1.80;;;14.60;1.00;;;;;;5017393;28;20434;-80
2022/05/28 10:58:49;;;;;;;10.27;1.57;;;13.90;1.00;;;;;;5033834;28;20418;-80
2022/05/28 11:01:35;;;;;;;9.90;1.60;;;13.50;1.00;;;;;;5033992;28;20424;-82
2022/05/28 11:04:23;;;;;;;6.60;1.20;;;13.60;99.90;;;;;;5016009;28;20922;-79
2022/05/28 11:07:05;;;;;;;3.27;1.20;;;14.10;10.90;;;;;;5033785;28;20505;-81
2022/05/28 11:09:57;;;;;;;6.57;1.03;;;15.30;1.00;;;;;;5033714;28;20412;-79
2022/05/28 11:13:05;;;;;;;7.90;1.37;;;16.00;1.00;;;;;;5032585;28;20468;-82
2022/05/28 11:15:58;;;;;;;5.53;1.40;;;16.80;99.90;;;;;;5002833;28;20430;-85
2022/05/28 11:18:49;;;;;;;8.30;0.97;;;16.70;99.90;;;;;;5033459;28;20418;-83
2022/05/28 11:21:36;;;;;;;5.87;1.03;;;16.60;99.90;;;;;;5033336;28;20487;-83
2022/05/28 11:24:05;;;;;;;8.87;0.93;;;17.00;99.90;;;;;;5033322;28;20426;-81
2022/05/28 11:27:01;;;;;;;4.20;0.93;;;16.10;99.90;;;;;;5033319;28;20534;-81
2022/05/28 11:30:00;;;;;;;7.47;1.17;;;15.70;99.90;;;;;;5033301;28;20407;-84
2022/05/28 11:32:29;;;;;;;5.50;0.80;;;15.30;99.90;;;;;;5033430;28;20784;-80
2022/05/28 11:35:09;;;;;;;4.40;0.70;;;15.00;1.00;;;;;;5032806;28;20408;-86
2022/05/28 11:37:39;;;;;;;6.60;0.40;;;15.00;99.90;;;;;;5033198;28;20472;-81
2022/05/28 11:40:24;;;;;;;8.83;2.47;;;15.60;1.00;;;;;;5032970;28;20989;-80
2022/05/28 11:43:05;;;;;;;4.60;0.97;;;15.20;99.90;;;;;;5033365;28;20426;-83
2022/05/28 11:45:44;;;;;;;5.40;1.13;;;14.90;1.00;;;;;;5034145;28;20407;-80
2022/05/28 11:51:27;;;;;;;8.70;1.10;;;14.20;99.90;;;;;;5033861;28;20435;-79
2022/05/28 11:51:29;;;;;;;10.40;2.43;;;13.80;1.00;;;;;;5032824;28;20424;-82
2022/05/28 11:54:10;;;;;;;6.23;1.43;;;13.10;99.90;;;;;;5036760;28;20407;-85
2022/05/28 11:56:36;;;;;;;5.40;2.00;;;12.80;99.90;;;;;;5038048;28;20443;-84
2022/05/28 11:59:19;;;;;;;13.37;1.77;;;12.70;99.90;;;;;;5033882;28;20555;-87
2022/05/28 12:01:52;;;;;;;6.27;1.00;;;12.80;99.90;;;;;;5034086;28;20752;-86
2022/05/28 12:04:19;;;;;;;9.27;1.37;;;12.70;99.90;;;;;;5033208;28;20415;-87
2022/05/28 12:07:04;;;;;;;8.60;0.93;;;12.50;99.90;;;;;;5014907;28;20531;-85
2022/05/28 12:09:34;;;;;;;9.97;2.33;;;12.40;99.90;;;;;;5032132;28;20414;-85
2022/05/28 12:12:13;;;;;;;8.03;1.60;;;12.50;99.90;;;;;;5032633;28;20927;-86
2022/05/28 12:14:41;;;;;;;16.20;2.53;;;12.40;99.90;;;;;;5035053;28;20507;-83
2022/05/28 12:17:19;;;;;;;16.23;3.13;;;12.40;99.90;;;;;;5035355;28;20420;-85
2022/05/28 12:19:54;;;;;;;13.10;2.17;;;12.70;99.90;;;;;;5032907;28;20826;-86
2022/05/28 12:22:37;;;;;;;6.83;2.03;;;12.60;99.90;;;;;;5034466;28;20823;-85
2022/05/28 12:25:15;;;;;;;7.87;0.93;;;12.50;99.90;;;;;;5037634;28;20509;-87
2022/05/28 12:28:07;;;;;;;6.00;1.80;;;12.50;99.90;;;;;;5017941;28;20421;-88
2022/05/28 12:30:41;;;;;;;6.33;1.40;;;12.50;99.90;;;;;;5032647;28;21090;-84
2022/05/28 12:33:18;;;;;;;9.13;1.47;;;12.90;99.90;;;;;;5032607;28;20399;-85
2022/05/28 12:36:09;;;;;;;12.60;2.53;;;13.10;99.90;;;;;;5032483;28;20971;-83
2022/05/28 12:38:48;;;;;;;6.13;1.50;;;13.20;99.90;;;;;;5032947;28;20405;-86
2022/05/28 12:41:30;;;;;;;12.73;1.23;;;14.50;99.90;;;;;;5033346;28;20430;-84
2022/05/28 12:44:18;;;;;;;8.80;2.03;;;14.70;1.00;;;;;;5033105;28;20421;-86
2022/05/28 12:46:51;;;;;;;14.33;1.97;;;14.40;1.00;;;;;;5015294;28;20888;-85
2022/05/28 12:49:31;;;;;;;6.60;1.90;;;13.90;1.00;;;;;;5032191;28;20446;-86
2022/05/28 12:52:04;;;;;;;8.07;1.37;;;13.30;99.90;;;;;;5015092;28;20447;-86
2022/05/28 12:54:35;;;;;;;6.10;1.07;;;12.90;1.00;;;;;;5032935;28;20445;-83
2022/05/28 12:57:34;;;;;;;5.57;1.03;;;13.00;1.00;;;;;;5032880;28;20413;-84
2022/05/28 13:00:00;;;;;;;7.17;0.60;;;13.40;7.20;;;;;;5010208;28;20553;-86
2022/05/28 13:02:43;;;;;;;8.60;0.93;;;13.50;1.00;;;;;;5032894;28;20500;-84
2022/05/28 13:05:42;;;;;;;6.23;0.87;;;13.70;18.90;;;;;;5032624;28;20204;-85
2022/05/28 13:08:15;;;;;;;12.60;1.20;;;14.10;99.90;;;;;;5032649;28;20413;-86
2022/05/28 13:10:54;;;;;;;4.87;0.50;;;14.20;1.00;;;;;;5032680;28;20828;-86
2022/05/28 13:13:51;;;;;;;3.93;0.70;;;13.80;99.90;;;;;;5032517;28;20494;-85
2022/05/28 13:16:53;;;;;;;5.17;1.03;;;13.60;99.90;;;;;;5032880;28;20454;-82
2022/05/28 13:20:03;;;;;;;4.37;0.93;;;13.70;1.00;;;;;;5032510;28;21104;-85
2022/05/28 13:22:48;;;;;;;5.50;1.00;;;13.70;1.00;;;;;;5034740;28;20423;-84
2022/05/28 13:25:22;;;;;;;6.70;1.73;;;13.40;1.00;;;;;;5037563;28;20416;-83
2022/05/28 13:27:57;;;;;;;11.70;1.47;;;13.20;1.00;;;;;;5036888;28;20493;-82
2022/05/28 13:30:35;;;;;;;13.40;0.57;;;12.90;99.90;;;;;;5043322;28;20778;-85